»·PEaware :: N313N KBUR-KSAN

N313N :: KBUR-KSAN

FLIGHT INFORMATION

Flight Status: Arrived
Operator: Privately registered:
United States
More flights under this callsign
Pilot: Damien O. (2415)
Aircraft: GULFSTREAM G-1159C GULFSTREAM 4
(GLF4)
More flights by this aircraft type
Origin: KBUR Bob Hope-Burbank
United States
Destination: KSAN San Diego Intl-Lindbergh
United States
More flights between these airports :: More routes between these airports
Route: +VNY3 TWINE V518 KIMMO V459 SLI SLI171 LAX118 CARDI MZB320 MZB
File this flight plan on PilotEdge
Remarks:
Altitude:
(Current/Filed)
11,000ft
Speed:
(Current/Filed)
330kts
Departed: 10-Nov-19 07:04 PM
Arrived: 10-Nov-19 07:45 PM
Distance/Time
Traveled:
106nm/0:41
Distance/Time
To Go:
Arrived

Flight Plot

Page will automatically refresh every two minutes.


Map Options




Map Legend


Flown Route
Filed Route
Departure Airport
Arrival Airport
Navaid (VOR, NDB)
Fix

Horizontal Profiles

Position Reports

Time Latitude Longitude Heading Altitude Ground
Speed
10-Nov-19 18:54 34.196810 -118.351969 180 784ft 0kts
10-Nov-19 18:55 34.196810 -118.351969 180 784ft 0kts
10-Nov-19 18:56 34.196810 -118.351969 180 784ft 0kts
10-Nov-19 18:57 34.196810 -118.351969 180 784ft 0kts
10-Nov-19 18:58 34.196810 -118.351969 179 784ft 0kts
10-Nov-19 18:59 34.196889 -118.351786 358 784ft 4kts
10-Nov-19 19:00 34.197600 -118.355537 331 784ft 12kts
10-Nov-19 19:01 34.202144 -118.356276 347 784ft 30kts
10-Nov-19 19:01 34.210198 -118.358561 346 784ft 31kts
10-Nov-19 19:02 34.211695 -118.359234 308 784ft 0kts
10-Nov-19 19:04 34.207749 -118.359378 167 784ft 120kts
10-Nov-19 19:05 34.159898 -118.380347 224 3164ft 229kts
10-Nov-19 19:05 34.134920 -118.431632 286 4642ft 240kts
10-Nov-19 19:06 34.193919 -118.461930 351 7579ft 249kts
10-Nov-19 19:08 34.273384 -118.478757 357 10887ft 258kts
10-Nov-19 19:08 34.300669 -118.429333 115 11029ft 259kts
10-Nov-19 19:09 34.236150 -118.364185 136 10994ft 336kts
10-Nov-19 19:10 34.170374 -118.294233 137 10992ft 332kts
10-Nov-19 19:11 34.094296 -118.235902 154 10992ft 339kts
10-Nov-19 19:12 33.999428 -118.185079 154 10987ft 395kts
10-Nov-19 19:13 33.904932 -118.132940 151 10986ft 394kts
10-Nov-19 19:14 33.810737 -118.075246 151 10972ft 389kts
10-Nov-19 19:15 33.706707 -118.059391 196 10979ft 396kts
10-Nov-19 19:16 33.604257 -118.056882 135 10993ft 389kts
10-Nov-19 19:17 33.529660 -117.961639 131 10972ft 391kts
10-Nov-19 19:18 33.455637 -117.866376 131 10972ft 391kts
10-Nov-19 19:19 33.382285 -117.771746 130 10981ft 385kts
10-Nov-19 19:20 33.310563 -117.676769 130 10988ft 385kts
10-Nov-19 19:21 33.244359 -117.588987 130 9001ft 310kts
10-Nov-19 19:22 33.189749 -117.515242 130 7067ft 284kts
10-Nov-19 19:23 33.140578 -117.446888 130 6992ft 275kts
10-Nov-19 19:24 33.078844 -117.395605 153 6992ft 273kts
10-Nov-19 19:25 33.019262 -117.359411 153 6991ft 271kts
10-Nov-19 19:26 32.958834 -117.322765 153 6989ft 269kts
10-Nov-19 19:27 32.893171 -117.283087 153 6987ft 268kts
10-Nov-19 19:28 32.840536 -117.242579 102 6987ft 191kts
10-Nov-19 19:29 32.829281 -117.178020 101 6983ft 202kts
10-Nov-19 19:30 32.818023 -117.112623 101 5525ft 199kts
10-Nov-19 19:31 32.807117 -117.049647 101 4985ft 197kts
10-Nov-19 19:32 32.795950 -116.986222 101 4981ft 196kts
10-Nov-19 19:33 32.784768 -116.922901 101 4981ft 195kts
10-Nov-19 19:34 32.768811 -116.862894 148 4973ft 195kts
10-Nov-19 19:35 32.714842 -116.869576 191 4149ft 197kts
10-Nov-19 19:36 32.663336 -116.881181 191 3766ft 174kts
10-Nov-19 19:37 32.627137 -116.903500 289 3858ft 168kts
10-Nov-19 19:38 32.661184 -116.938272 311 3784ft 166kts
10-Nov-19 19:39 32.683437 -116.986429 289 3605ft 172kts
10-Nov-19 19:40 32.696897 -117.039050 286 2701ft 161kts
10-Nov-19 19:41 32.709523 -117.090798 286 2347ft 166kts
10-Nov-19 19:42 32.721770 -117.141721 287 1093ft 164kts
10-Nov-19 19:43 32.732796 -117.186314 282 25ft 54kts
10-Nov-19 19:44 32.732669 -117.188511 224 25ft 5kts
10-Nov-19 19:45 32.731164 -117.191586 356 25ft 10kts
10-Nov-19 19:46 32.731308 -117.191542 30 25ft 0kts
10-Nov-19 19:47 32.731308 -117.191542 30 25ft 0kts
10-Nov-19 19:48 32.731308 -117.191542 30 25ft 0kts

Navigation Log

Ident Type
Flight plan parsing failed, navigation log unavailable